sensor_id;sensor_type;location;lat;lon;timestamp;pressure;altitude;pressure_sealevel;temperature;humidity
78613;BME280;67933;51.060;3.638;2023-08-06T00:00:20;100327.84;;;14.07;100.00
78613;BME280;67933;51.060;3.638;2023-08-06T00:02:46;100323.94;;;14.11;100.00
78613;BME280;67933;51.060;3.638;2023-08-06T00:05:11;100322.47;;;14.18;100.00
78613;BME280;67933;51.060;3.638;2023-08-06T00:07:37;100318.84;;;14.19;100.00
78613;BME280;67933;51.060;3.638;2023-08-06T00:10:03;100325.41;;;14.15;100.00
78613;BME280;67933;51.060;3.638;2023-08-06T00:12:28;100330.47;;;14.18;100.00
78613;BME280;67933;51.060;3.638;2023-08-06T00:14:54;100326.34;;;14.25;100.00
78613;BME280;67933;51.060;3.638;2023-08-06T00:17:19;100325.97;;;14.30;100.00
78613;BME280;67933;51.060;3.638;2023-08-06T00:19:45;100327.53;;;14.33;100.00
78613;BME280;67933;51.060;3.638;2023-08-06T00:22:10;100321.97;;;14.36;100.00
78613;BME280;67933;51.060;3.638;2023-08-06T00:24:35;100318.56;;;14.34;100.00
78613;BME280;67933;51.060;3.638;2023-08-06T00:27:01;100319.78;;;14.30;100.00
78613;BME280;67933;51.060;3.638;2023-08-06T00:29:27;100325.13;;;14.30;100.00
78613;BME280;67933;51.060;3.638;2023-08-06T00:31:52;100326.22;;;14.27;100.00
78613;BME280;67933;51.060;3.638;2023-08-06T00:34:19;100329.75;;;14.27;100.00
78613;BME280;67933;51.060;3.638;2023-08-06T00:36:45;100333.25;;;14.28;100.00
78613;BME280;67933;51.060;3.638;2023-08-06T00:39:10;100325.88;;;14.20;100.00
78613;BME280;67933;51.060;3.638;2023-08-06T00:41:36;100326.72;;;14.21;100.00
78613;BME280;67933;51.060;3.638;2023-08-06T00:44:01;100337.28;;;14.22;100.00
78613;BME280;67933;51.060;3.638;2023-08-06T00:46:27;100335.34;;;14.24;100.00
78613;BME280;67933;51.060;3.638;2023-08-06T00:48:52;100330.00;;;14.24;100.00
78613;BME280;67933;51.060;3.638;2023-08-06T00:51:19;100342.34;;;14.25;100.00
78613;BME280;67933;51.060;3.638;2023-08-06T00:53:45;100343.69;;;14.20;100.00
78613;BME280;67933;51.060;3.638;2023-08-06T00:56:11;100355.00;;;14.23;100.00
78613;BME280;67933;51.060;3.638;2023-08-06T00:58:38;100364.94;;;14.21;100.00
78613;BME280;67933;51.060;3.638;2023-08-06T01:01:04;100368.78;;;14.17;100.00
78613;BME280;67933;51.060;3.638;2023-08-06T01:03:29;100369.06;;;14.14;100.00
78613;BME280;67933;51.060;3.638;2023-08-06T01:05:55;100368.31;;;14.12;100.00
78613;BME280;67933;51.060;3.638;2023-08-06T01:09:31;100379.00;;;14.12;100.00
78613;BME280;67933;51.060;3.638;2023-08-06T01:14:30;100399.59;;;14.21;100.00
78613;BME280;67933;51.060;3.638;2023-08-06T01:16:59;100388.72;;;14.24;100.00
78613;BME280;67933;51.060;3.638;2023-08-06T01:19:26;100398.38;;;14.25;100.00
78613;BME280;67933;51.060;3.638;2023-08-06T01:21:51;100392.81;;;14.29;100.00
78613;BME280;67933;51.060;3.638;2023-08-06T01:24:17;100406.88;;;14.31;100.00
78613;BME280;67933;51.060;3.638;2023-08-06T01:26:48;100409.56;;;14.31;100.00
78613;BME280;67933;51.060;3.638;2023-08-06T01:31:48;100418.03;;;14.36;100.00
78613;BME280;67933;51.060;3.638;2023-08-06T01:34:23;100439.38;;;14.36;100.00
78613;BME280;67933;51.060;3.638;2023-08-06T01:36:50;100439.38;;;14.36;100.00
78613;BME280;67933;51.060;3.638;2023-08-06T01:39:16;100443.38;;;14.30;100.00
78613;BME280;67933;51.060;3.638;2023-08-06T01:41:41;100451.50;;;14.29;100.00
78613;BME280;67933;51.060;3.638;2023-08-06T01:44:06;100460.00;;;14.22;100.00
78613;BME280;67933;51.060;3.638;2023-08-06T01:46:32;100459.16;;;14.22;100.00
78613;BME280;67933;51.060;3.638;2023-08-06T01:48:57;100463.63;;;14.21;100.00
78613;BME280;67933;51.060;3.638;2023-08-06T01:51:23;100477.09;;;14.20;100.00
78613;BME280;67933;51.060;3.638;2023-08-06T01:53:48;100478.16;;;14.17;100.00
78613;BME280;67933;51.060;3.638;2023-08-06T01:56:13;100481.84;;;14.16;100.00
78613;BME280;67933;51.060;3.638;2023-08-06T01:58:39;100485.31;;;14.17;100.00
78613;BME280;67933;51.060;3.638;2023-08-06T02:01:04;100493.34;;;14.17;100.00
78613;BME280;67933;51.060;3.638;2023-08-06T02:03:30;100496.84;;;14.17;100.00
78613;BME280;67933;51.060;3.638;2023-08-06T02:05:55;100506.56;;;14.18;100.00
78613;BME280;67933;51.060;3.638;2023-08-06T02:08:20;100517.97;;;14.20;100.00
78613;BME280;67933;51.060;3.638;2023-08-06T02:10:46;100524.78;;;14.24;100.00
78613;BME280;67933;51.060;3.638;2023-08-06T02:13:12;100533.50;;;14.26;100.00
78613;BME280;67933;51.060;3.638;2023-08-06T02:15:44;100539.09;;;14.35;100.00
78613;BME280;67933;51.060;3.638;2023-08-06T02:18:09;100538.97;;;14.36;100.00
78613;BME280;67933;51.060;3.638;2023-08-06T02:20:35;100560.53;;;14.33;100.00
78613;BME280;67933;51.060;3.638;2023-08-06T02:23:00;100550.47;;;14.25;100.00
78613;BME280;67933;51.060;3.638;2023-08-06T02:25:26;100547.91;;;14.13;100.00
78613;BME280;67933;51.060;3.638;2023-08-06T02:27:51;100571.75;;;14.03;100.00
78613;BME280;67933;51.060;3.638;2023-08-06T02:30:16;100562.03;;;13.91;100.00
78613;BME280;67933;51.060;3.638;2023-08-06T02:32:42;100571.22;;;13.87;100.00
78613;BME280;67933;51.060;3.638;2023-08-06T02:35:07;100570.25;;;13.77;100.00
78613;BME280;67933;51.060;3.638;2023-08-06T02:37:34;100576.38;;;13.66;100.00
78613;BME280;67933;51.060;3.638;2023-08-06T02:39:59;100587.59;;;13.59;100.00
78613;BME280;67933;51.060;3.638;2023-08-06T02:42:25;100593.50;;;13.51;100.00
78613;BME280;67933;51.060;3.638;2023-08-06T02:44:52;100595.75;;;13.44;100.00
78613;BME280;67933;51.060;3.638;2023-08-06T02:47:17;100595.03;;;13.42;100.00
78613;BME280;67933;51.060;3.638;2023-08-06T02:49:43;100601.19;;;13.43;100.00
78613;BME280;67933;51.060;3.638;2023-08-06T02:52:08;100611.88;;;13.43;100.00
78613;BME280;67933;51.060;3.638;2023-08-06T02:54:34;100629.44;;;13.45;100.00
78613;BME280;67933;51.060;3.638;2023-08-06T02:56:59;100634.78;;;13.45;100.00
78613;BME280;67933;51.060;3.638;2023-08-06T02:59:24;100634.03;;;13.43;100.00
78613;BME280;67933;51.060;3.638;2023-08-06T03:01:50;100637.44;;;13.45;100.00
78613;BME280;67933;51.060;3.638;2023-08-06T03:04:15;100646.06;;;13.49;100.00
78613;BME280;67933;51.060;3.638;2023-08-06T03:06:43;100649.47;;;13.51;100.00
78613;BME280;67933;51.060;3.638;2023-08-06T03:09:08;100646.22;;;13.59;100.00
78613;BME280;67933;51.060;3.638;2023-08-06T03:11:33;100655.69;;;13.63;100.00
78613;BME280;67933;51.060;3.638;2023-08-06T03:13:59;100662.88;;;13.62;100.00
78613;BME280;67933;51.060;3.638;2023-08-06T03:16:24;100674.13;;;13.66;100.00
78613;BME280;67933;51.060;3.638;2023-08-06T03:18:50;100650.03;;;13.67;100.00
78613;BME280;67933;51.060;3.638;2023-08-06T03:21:15;100674.13;;;13.66;100.00
78613;BME280;67933;51.060;3.638;2023-08-06T03:23:40;100683.09;;;13.65;100.00
78613;BME280;67933;51.060;3.638;2023-08-06T03:26:06;100691.19;;;13.63;100.00
78613;BME280;67933;51.060;3.638;2023-08-06T03:28:31;100686.50;;;13.67;100.00
78613;BME280;67933;51.060;3.638;2023-08-06T03:31:03;100693.66;;;13.66;100.00
78613;BME280;67933;51.060;3.638;2023-08-06T03:33:29;100699.09;;;13.65;100.00
78613;BME280;67933;51.060;3.638;2023-08-06T03:35:55;100698.13;;;13.66;100.00
78613;BME280;67933;51.060;3.638;2023-08-06T03:38:20;100710.72;;;13.64;100.00
78613;BME280;67933;51.060;3.638;2023-08-06T03:40:46;100709.00;;;13.63;100.00
78613;BME280;67933;51.060;3.638;2023-08-06T03:43:12;100711.81;;;13.61;100.00
78613;BME280;67933;51.060;3.638;2023-08-06T03:45:37;100722.56;;;13.60;100.00
78613;BME280;67933;51.060;3.638;2023-08-06T03:48:03;100722.06;;;13.55;100.00
78613;BME280;67933;51.060;3.638;2023-08-06T03:50:28;100732.94;;;13.52;100.00
78613;BME280;67933;51.060;3.638;2023-08-06T03:52:54;100722.38;;;13.50;100.00
78613;BME280;67933;51.060;3.638;2023-08-06T03:55:19;100730.28;;;13.52;100.00
78613;BME280;67933;51.060;3.638;2023-08-06T03:57:44;100732.94;;;13.52;100.00
78613;BME280;67933;51.060;3.638;2023-08-06T04:00:10;100736.66;;;13.49;100.00
78613;BME280;67933;51.060;3.638;2023-08-06T04:02:35;100744.75;;;13.47;100.00
78613;BME280;67933;51.060;3.638;2023-08-06T04:05:01;100755.41;;;13.47;100.00
78613;BME280;67933;51.060;3.638;2023-08-06T04:07:26;100760.75;;;13.47;100.00
78613;BME280;67933;51.060;3.638;2023-08-06T04:09:57;100753.75;;;13.46;100.00
78613;BME280;67933;51.060;3.638;2023-08-06T04:12:23;100760.75;;;13.47;100.00
78613;BME280;67933;51.060;3.638;2023-08-06T04:14:50;100766.22;;;13.46;100.00
78613;BME280;67933;51.060;3.638;2023-08-06T04:17:16;100778.44;;;13.48;100.00
78613;BME280;67933;51.060;3.638;2023-08-06T04:19:41;100782.06;;;13.47;100.00
78613;BME280;67933;51.060;3.638;2023-08-06T04:22:06;100788.59;;;13.43;100.00
78613;BME280;67933;51.060;3.638;2023-08-06T04:24:32;100793.41;;;13.38;100.00
78613;BME280;67933;51.060;3.638;2023-08-06T04:26:58;100809.25;;;13.40;100.00
78613;BME280;67933;51.060;3.638;2023-08-06T04:29:23;100809.06;;;13.43;100.00
78613;BME280;67933;51.060;3.638;2023-08-06T04:31:49;100817.69;;;13.34;100.00
78613;BME280;67933;51.060;3.638;2023-08-06T04:34:14;100825.56;;;13.35;100.00
78613;BME280;67933;51.060;3.638;2023-08-06T04:36:39;100821.97;;;13.36;100.00
78613;BME280;67933;51.060;3.638;2023-08-06T04:39:05;100832.63;;;13.36;100.00
78613;BME280;67933;51.060;3.638;2023-08-06T04:41:30;100846.78;;;13.37;100.00
78613;BME280;67933;51.060;3.638;2023-08-06T04:43:56;100842.41;;;13.36;100.00
78613;BME280;67933;51.060;3.638;2023-08-06T04:46:22;100855.66;;;13.37;100.00
78613;BME280;67933;51.060;3.638;2023-08-06T04:48:47;100854.38;;;13.30;100.00
78613;BME280;67933;51.060;3.638;2023-08-06T04:51:13;100854.38;;;13.30;100.00
78613;BME280;67933;51.060;3.638;2023-08-06T04:53:39;100863.75;;;13.36;100.00
78613;BME280;67933;51.060;3.638;2023-08-06T04:56:04;100867.47;;;13.33;100.00
78613;BME280;67933;51.060;3.638;2023-08-06T04:58:30;100870.88;;;13.35;100.00
78613;BME280;67933;51.060;3.638;2023-08-06T05:00:55;100876.41;;;13.32;100.00
78613;BME280;67933;51.060;3.638;2023-08-06T05:03:21;100882.91;;;13.28;100.00
78613;BME280;67933;51.060;3.638;2023-08-06T05:05:46;100884.63;;;13.29;100.00
78613;BME280;67933;51.060;3.638;2023-08-06T05:08:15;100896.03;;;13.31;100.00
78613;BME280;67933;51.060;3.638;2023-08-06T05:10:45;100899.66;;;13.30;100.00
78613;BME280;67933;51.060;3.638;2023-08-06T05:13:11;100899.75;;;13.29;100.00
78613;BME280;67933;51.060;3.638;2023-08-06T05:15:36;100898.91;;;13.28;100.00
78613;BME280;67933;51.060;3.638;2023-08-06T05:18:01;100898.72;;;13.31;100.00
78613;BME280;67933;51.060;3.638;2023-08-06T05:20:27;100899.44;;;13.33;100.00
78613;BME280;67933;51.060;3.638;2023-08-06T05:22:52;100908.38;;;13.32;100.00
78613;BME280;67933;51.060;3.638;2023-08-06T05:25:18;100906.91;;;13.28;100.00
78613;BME280;67933;51.060;3.638;2023-08-06T05:27:43;100907.09;;;13.25;100.00
78613;BME280;67933;51.060;3.638;2023-08-06T05:30:09;100917.44;;;13.30;100.00
78613;BME280;67933;51.060;3.638;2023-08-06T05:32:35;100912.84;;;13.32;100.00
78613;BME280;67933;51.060;3.638;2023-08-06T05:35:00;100917.03;;;13.36;100.00
78613;BME280;67933;51.060;3.638;2023-08-06T05:37:26;100912.66;;;13.47;100.00
78613;BME280;67933;51.060;3.638;2023-08-06T05:39:51;100919.94;;;13.45;100.00
78613;BME280;67933;51.060;3.638;2023-08-06T05:42:16;100926.22;;;13.44;100.00
78613;BME280;67933;51.060;3.638;2023-08-06T05:44:42;100926.75;;;13.49;100.00
78613;BME280;67933;51.060;3.638;2023-08-06T05:47:07;100938.69;;;13.57;100.00
78613;BME280;67933;51.060;3.638;2023-08-06T05:49:33;100946.69;;;13.57;100.00
78613;BME280;67933;51.060;3.638;2023-08-06T05:51:58;100946.78;;;13.55;100.00
78613;BME280;67933;51.060;3.638;2023-08-06T05:54:24;100946.06;;;13.53;100.00
78613;BME280;67933;51.060;3.638;2023-08-06T05:56:50;100954.34;;;13.48;100.00
78613;BME280;67933;51.060;3.638;2023-08-06T05:59:15;100974.38;;;13.41;100.00
78613;BME280;67933;51.060;3.638;2023-08-06T06:01:40;100974.78;;;13.35;100.00
78613;BME280;67933;51.060;3.638;2023-08-06T06:04:06;100973.84;;;13.36;100.00
78613;BME280;67933;51.060;3.638;2023-08-06T06:06:31;100974.59;;;13.38;100.00
78613;BME280;67933;51.060;3.638;2023-08-06T06:08:56;100980.78;;;13.39;100.00
78613;BME280;67933;51.060;3.638;2023-08-06T06:11:22;100980.88;;;13.37;100.00
78613;BME280;67933;51.060;3.638;2023-08-06T06:13:51;100990.78;;;13.35;100.00
78613;BME280;67933;51.060;3.638;2023-08-06T06:16:17;100992.50;;;13.36;100.00
78613;BME280;67933;51.060;3.638;2023-08-06T06:18:43;101001.44;;;13.35;100.00
78613;BME280;67933;51.060;3.638;2023-08-06T06:21:09;101007.72;;;13.34;100.00
78613;BME280;67933;51.060;3.638;2023-08-06T06:23:35;101019.75;;;13.27;100.00
78613;BME280;67933;51.060;3.638;2023-08-06T06:26:00;101024.66;;;13.33;100.00
78613;BME280;67933;51.060;3.638;2023-08-06T06:28:25;101025.53;;;13.34;100.00
78613;BME280;67933;51.060;3.638;2023-08-06T06:30:51;101031.72;;;13.34;100.00
78613;BME280;67933;51.060;3.638;2023-08-06T06:33:16;101032.66;;;13.33;100.00
78613;BME280;67933;51.060;3.638;2023-08-06T06:35:42;101041.84;;;13.42;100.00
78613;BME280;67933;51.060;3.638;2023-08-06T06:38:07;101039.63;;;13.48;100.00
78613;BME280;67933;51.060;3.638;2023-08-06T06:40:33;101039.88;;;13.58;100.00
78613;BME280;67933;51.060;3.638;2023-08-06T06:42:58;101040.31;;;13.65;100.00
78613;BME280;67933;51.060;3.638;2023-08-06T06:45:23;101043.09;;;13.63;100.00
78613;BME280;67933;51.060;3.638;2023-08-06T06:47:49;101055.78;;;13.60;100.00
78613;BME280;67933;51.060;3.638;2023-08-06T06:50:14;101055.03;;;13.58;100.00
78613;BME280;67933;51.060;3.638;2023-08-06T06:52:40;101052.44;;;13.56;100.00
78613;BME280;67933;51.060;3.638;2023-08-06T06:55:05;101065.59;;;13.59;100.00
78613;BME280;67933;51.060;3.638;2023-08-06T06:57:31;101067.94;;;13.64;100.00
78613;BME280;67933;51.060;3.638;2023-08-06T06:59:56;101058.22;;;13.63;100.00
78613;BME280;67933;51.060;3.638;2023-08-06T07:02:21;101062.22;;;13.70;100.00
78613;BME280;67933;51.060;3.638;2023-08-06T07:04:47;101065.94;;;13.80;100.00
78613;BME280;67933;51.060;3.638;2023-08-06T07:07:12;101076.00;;;13.89;100.00
78613;BME280;67933;51.060;3.638;2023-08-06T07:09:38;101075.81;;;13.92;100.00
78613;BME280;67933;51.060;3.638;2023-08-06T07:12:03;101077.09;;;13.99;100.00
78613;BME280;67933;51.060;3.638;2023-08-06T07:14:29;101070.47;;;13.92;99.28
78613;BME280;67933;51.060;3.638;2023-08-06T07:16:54;101072.56;;;13.87;99.10
78613;BME280;67933;51.060;3.638;2023-08-06T07:19:20;101084.97;;;13.88;99.18
78613;BME280;67933;51.060;3.638;2023-08-06T07:21:46;101078.88;;;13.86;98.53
78613;BME280;67933;51.060;3.638;2023-08-06T07:24:11;101083.47;;;13.84;99.56
78613;BME280;67933;51.060;3.638;2023-08-06T07:26:37;101088.81;;;13.84;99.29
78613;BME280;67933;51.060;3.638;2023-08-06T07:29:02;101092.97;;;13.88;98.16
78613;BME280;67933;51.060;3.638;2023-08-06T07:31:28;101096.63;;;14.00;97.25
78613;BME280;67933;51.060;3.638;2023-08-06T07:33:53;101091.41;;;14.11;97.40
78613;BME280;67933;51.060;3.638;2023-08-06T07:36:19;101100.59;;;14.07;97.89
78613;BME280;67933;51.060;3.638;2023-08-06T07:38:44;101112.22;;;14.06;96.05
78613;BME280;67933;51.060;3.638;2023-08-06T07:41:09;101098.63;;;13.96;97.50
78613;BME280;67933;51.060;3.638;2023-08-06T07:43:35;101100.16;;;14.00;98.39
78613;BME280;67933;51.060;3.638;2023-08-06T07:46:01;101102.50;;;14.05;97.58
78613;BME280;67933;51.060;3.638;2023-08-06T07:48:27;101105.28;;;14.16;94.38
78613;BME280;67933;51.060;3.638;2023-08-06T07:50:54;101105.94;;;14.19;95.23
78613;BME280;67933;51.060;3.638;2023-08-06T07:53:23;101106.78;;;14.20;95.19
78613;BME280;67933;51.060;3.638;2023-08-06T07:55:52;101110.41;;;14.19;95.11
78613;BME280;67933;51.060;3.638;2023-08-06T07:58:19;101113.94;;;14.19;95.52
78613;BME280;67933;51.060;3.638;2023-08-06T08:00:44;101110.84;;;14.25;93.92
78613;BME280;67933;51.060;3.638;2023-08-06T08:03:12;101105.63;;;14.37;95.71
78613;BME280;67933;51.060;3.638;2023-08-06T08:05:42;101103.53;;;14.54;93.42
78613;BME280;67933;51.060;3.638;2023-08-06T08:08:08;101119.16;;;14.34;94.36
78613;BME280;67933;51.060;3.638;2023-08-06T08:10:33;101116.84;;;14.29;96.20
78613;BME280;67933;51.060;3.638;2023-08-06T08:13:02;101119.81;;;14.24;96.85
78613;BME280;67933;51.060;3.638;2023-08-06T08:15:29;101124.63;;;14.32;96.79
78613;BME280;67933;51.060;3.638;2023-08-06T08:17:54;101122.75;;;14.59;95.11
78613;BME280;67933;51.060;3.638;2023-08-06T08:20:20;101113.69;;;14.62;95.93
78613;BME280;67933;51.060;3.638;2023-08-06T08:22:45;101123.41;;;14.63;97.45
78613;BME280;67933;51.060;3.638;2023-08-06T08:25:11;101116.47;;;14.48;96.62
78613;BME280;67933;51.060;3.638;2023-08-06T08:27:36;101135.84;;;14.37;94.88
78613;BME280;67933;51.060;3.638;2023-08-06T08:30:02;101119.41;;;14.31;95.52
78613;BME280;67933;51.060;3.638;2023-08-06T08:32:27;101120.13;;;14.33;95.34
78613;BME280;67933;51.060;3.638;2023-08-06T08:34:52;101126.81;;;14.40;96.34
78613;BME280;67933;51.060;3.638;2023-08-06T08:37:18;101130.50;;;14.24;93.15
78613;BME280;67933;51.060;3.638;2023-08-06T08:39:44;101141.13;;;14.12;95.08
78613;BME280;67933;51.060;3.638;2023-08-06T08:42:10;101135.91;;;14.10;98.65
78613;BME280;67933;51.060;3.638;2023-08-06T08:44:36;101153.94;;;14.07;98.63
78613;BME280;67933;51.060;3.638;2023-08-06T08:47:06;101152.66;;;14.00;100.00
78613;BME280;67933;51.060;3.638;2023-08-06T08:49:31;101140.88;;;13.90;100.00
78613;BME280;67933;51.060;3.638;2023-08-06T08:51:59;101144.72;;;13.85;100.00
78613;BME280;67933;51.060;3.638;2023-08-06T08:54:27;101146.63;;;13.83;99.19
78613;BME280;67933;51.060;3.638;2023-08-06T08:56:53;101150.44;;;13.79;100.00
78613;BME280;67933;51.060;3.638;2023-08-06T08:59:20;101145.53;;;13.86;99.39
78613;BME280;67933;51.060;3.638;2023-08-06T09:01:46;101149.13;;;13.99;98.91
78613;BME280;67933;51.060;3.638;2023-08-06T09:04:17;101159.72;;;14.13;97.91
78613;BME280;67933;51.060;3.638;2023-08-06T09:06:42;101166.88;;;14.25;98.21
78613;BME280;67933;51.060;3.638;2023-08-06T09:09:17;101165.72;;;14.30;98.95
78613;BME280;67933;51.060;3.638;2023-08-06T09:11:48;101167.88;;;14.37;98.06
78613;BME280;67933;51.060;3.638;2023-08-06T09:14:14;101170.03;;;14.45;97.87
78613;BME280;67933;51.060;3.638;2023-08-06T09:16:40;101183.81;;;14.51;98.47
78613;BME280;67933;51.060;3.638;2023-08-06T09:19:12;101184.94;;;14.35;96.06
78613;BME280;67933;51.060;3.638;2023-08-06T09:21:42;101188.56;;;14.34;98.45
78613;BME280;67933;51.060;3.638;2023-08-06T09:24:13;101186.13;;;14.31;100.00
78613;BME280;67933;51.060;3.638;2023-08-06T09:26:40;101203.00;;;14.31;100.00
78613;BME280;67933;51.060;3.638;2023-08-06T09:29:06;101207.22;;;14.21;100.00
78613;BME280;67933;51.060;3.638;2023-08-06T09:31:46;101206.03;;;14.12;100.00
78613;BME280;67933;51.060;3.638;2023-08-06T09:36:52;101203.50;;;13.97;100.00
78613;BME280;67933;51.060;3.638;2023-08-06T09:39:21;101210.22;;;13.90;100.00
78613;BME280;67933;51.060;3.638;2023-08-06T09:41:47;101217.53;;;13.86;100.00
78613;BME280;67933;51.060;3.638;2023-08-06T09:44:21;101229.22;;;13.71;100.00
78613;BME280;67933;51.060;3.638;2023-08-06T09:46:56;101235.53;;;13.70;100.00
78613;BME280;67933;51.060;3.638;2023-08-06T09:49:28;101231.69;;;13.74;100.00
78613;BME280;67933;51.060;3.638;2023-08-06T09:51:54;101251.16;;;13.88;100.00
78613;BME280;67933;51.060;3.638;2023-08-06T09:54:23;101242.66;;;13.96;99.07
78613;BME280;67933;51.060;3.638;2023-08-06T09:56:49;101249.25;;;14.17;97.04
78613;BME280;67933;51.060;3.638;2023-08-06T09:59:16;101246.34;;;14.74;94.36
78613;BME280;67933;51.060;3.638;2023-08-06T10:01:43;101244.44;;;15.14;90.30
78613;BME280;67933;51.060;3.638;2023-08-06T10:04:08;101251.56;;;15.88;89.77
78613;BME280;67933;51.060;3.638;2023-08-06T10:06:35;101253.47;;;15.99;87.42
78613;BME280;67933;51.060;3.638;2023-08-06T10:09:02;101242.97;;;15.72;84.43
78613;BME280;67933;51.060;3.638;2023-08-06T10:11:29;101251.88;;;15.34;82.57
78613;BME280;67933;51.060;3.638;2023-08-06T10:14:31;101256.38;;;15.34;85.94
78613;BME280;67933;51.060;3.638;2023-08-06T10:16:58;101252.75;;;15.35;84.69
78613;BME280;67933;51.060;3.638;2023-08-06T10:19:25;101259.69;;;15.37;83.42
78613;BME280;67933;51.060;3.638;2023-08-06T10:22:13;101265.59;;;15.30;84.72
78613;BME280;67933;51.060;3.638;2023-08-06T10:24:50;101267.94;;;15.22;83.11
78613;BME280;67933;51.060;3.638;2023-08-06T10:27:32;101263.44;;;15.48;82.45
78613;BME280;67933;51.060;3.638;2023-08-06T10:30:21;101260.63;;;15.74;83.39
78613;BME280;67933;51.060;3.638;2023-08-06T10:32:47;101272.31;;;15.97;82.54
78613;BME280;67933;51.060;3.638;2023-08-06T10:35:35;101264.94;;;15.88;82.56
78613;BME280;67933;51.060;3.638;2023-08-06T10:40:29;101268.31;;;15.79;81.57
78613;BME280;67933;51.060;3.638;2023-08-06T10:42:58;101269.00;;;15.57;81.65
78613;BME280;67933;51.060;3.638;2023-08-06T10:45:24;101272.66;;;15.56;82.42
78613;BME280;67933;51.060;3.638;2023-08-06T10:47:54;101272.53;;;15.45;82.02
78613;BME280;67933;51.060;3.638;2023-08-06T10:50:19;101288.25;;;15.37;83.65
78613;BME280;67933;51.060;3.638;2023-08-06T10:52:46;101258.97;;;15.23;81.26
78613;BME280;67933;51.060;3.638;2023-08-06T10:55:14;101289.75;;;15.16;83.42
78613;BME280;67933;51.060;3.638;2023-08-06T10:57:39;101290.50;;;14.92;88.90
78613;BME280;67933;51.060;3.638;2023-08-06T11:00:06;101295.47;;;14.72;89.30
78613;BME280;67933;51.060;3.638;2023-08-06T11:02:36;101298.66;;;14.64;92.91
78613;BME280;67933;51.060;3.638;2023-08-06T11:05:08;101309.56;;;14.61;92.95
78613;BME280;67933;51.060;3.638;2023-08-06T11:07:38;101302.50;;;14.60;92.94
78613;BME280;67933;51.060;3.638;2023-08-06T11:10:05;101311.53;;;14.45;92.56
78613;BME280;67933;51.060;3.638;2023-08-06T11:12:32;101324.50;;;14.63;92.56
78613;BME280;67933;51.060;3.638;2023-08-06T11:14:58;101314.00;;;14.48;93.72
78613;BME280;67933;51.060;3.638;2023-08-06T11:17:24;101326.59;;;14.46;94.84
78613;BME280;67933;51.060;3.638;2023-08-06T11:19:50;101320.41;;;14.45;95.41
78613;BME280;67933;51.060;3.638;2023-08-06T11:22:16;101322.56;;;14.53;96.30
78613;BME280;67933;51.060;3.638;2023-08-06T11:24:42;101314.56;;;14.66;93.58
78613;BME280;67933;51.060;3.638;2023-08-06T11:27:15;101319.31;;;14.87;93.63
78613;BME280;67933;51.060;3.638;2023-08-06T11:29:42;101309.09;;;14.94;94.43
78613;BME280;67933;51.060;3.638;2023-08-06T11:32:08;101313.91;;;15.27;92.88
78613;BME280;67933;51.060;3.638;2023-08-06T11:34:34;101310.06;;;15.31;89.23
78613;BME280;67933;51.060;3.638;2023-08-06T11:36:59;101321.63;;;15.31;87.83
78613;BME280;67933;51.060;3.638;2023-08-06T11:39:25;101321.72;;;15.43;86.99
78613;BME280;67933;51.060;3.638;2023-08-06T11:41:51;101311.09;;;15.92;84.91
78613;BME280;67933;51.060;3.638;2023-08-06T11:44:19;101303.66;;;16.32;82.08
78613;BME280;67933;51.060;3.638;2023-08-06T11:46:55;101327.00;;;16.06;84.35
78613;BME280;67933;51.060;3.638;2023-08-06T11:49:40;101337.44;;;15.47;86.80
78613;BME280;67933;51.060;3.638;2023-08-06T11:52:25;101334.09;;;15.06;89.01
78613;BME280;67933;51.060;3.638;2023-08-06T11:57:32;101356.38;;;14.79;93.81
78613;BME280;67933;51.060;3.638;2023-08-06T12:00:04;101349.56;;;14.88;90.99
78613;BME280;67933;51.060;3.638;2023-08-06T12:02:32;101345.56;;;15.20;90.56
78613;BME280;67933;51.060;3.638;2023-08-06T12:07:39;101342.19;;;16.18;85.71
78613;BME280;67933;51.060;3.638;2023-08-06T12:10:06;101340.47;;;16.04;85.48
78613;BME280;67933;51.060;3.638;2023-08-06T12:12:31;101344.13;;;16.03;85.02
78613;BME280;67933;51.060;3.638;2023-08-06T12:14:57;101345.78;;;15.81;85.54
78613;BME280;67933;51.060;3.638;2023-08-06T12:17:24;101364.81;;;15.89;83.73
78613;BME280;67933;51.060;3.638;2023-08-06T12:19:50;101361.16;;;16.02;81.71
78613;BME280;67933;51.060;3.638;2023-08-06T12:22:16;101348.50;;;16.17;84.04
78613;BME280;67933;51.060;3.638;2023-08-06T12:24:45;101372.56;;;15.68;83.15
78613;BME280;67933;51.060;3.638;2023-08-06T12:27:11;101381.78;;;15.64;85.52
78613;BME280;67933;51.060;3.638;2023-08-06T12:29:40;101391.81;;;15.60;85.71
78613;BME280;67933;51.060;3.638;2023-08-06T12:32:06;101380.56;;;15.81;83.40
78613;BME280;67933;51.060;3.638;2023-08-06T12:34:32;101377.00;;;16.05;83.94
78613;BME280;67933;51.060;3.638;2023-08-06T12:36:57;101381.47;;;16.05;81.39
78613;BME280;67933;51.060;3.638;2023-08-06T12:39:23;101387.69;;;16.18;77.38
78613;BME280;67933;51.060;3.638;2023-08-06T12:41:49;101379.50;;;16.32;78.64
78613;BME280;67933;51.060;3.638;2023-08-06T12:44:14;101399.88;;;16.22;80.43
78613;BME280;67933;51.060;3.638;2023-08-06T12:46:40;101401.72;;;16.45;80.95
78613;BME280;67933;51.060;3.638;2023-08-06T12:49:05;101399.34;;;16.53;81.18
78613;BME280;67933;51.060;3.638;2023-08-06T12:51:31;101391.75;;;16.84;80.15
78613;BME280;67933;51.060;3.638;2023-08-06T12:53:59;101395.16;;;16.49;78.95
78613;BME280;67933;51.060;3.638;2023-08-06T12:56:24;101397.50;;;16.30;82.15